PWSweather.com
Personal Weather Stations
Station Observations
KMAWOBUR2
West Side, Woburn, MA 01801

West SideWoburn, MA 01801

Lat: 42.458, Lon: -71.1955

Elevation: 160

Station Type: DAVIS/Vantage Pro2

http://pauland.net

Latest ConditionsUpdated 7:30:05 AM GMT Monday, Sep 1, 2014
Currently Today's Max Today's Min Today's Average
Temperature 71.1°F21.7°C 78.6°F25.9°C 71.1°F21.7°C 73.0°F22.8°C
Dew Point 70.2°F21.2°C 73.2°F22.9°C 70.0°F21.1°C 71.0°F21.7°C
Winds Calm Calm 2.0 mph SW3.2 kmh SW - 0.0 mph 0.0 kmh
Wind Gusts 1.0 mph1.6 kmh 6.0 mph9.7 kmh - -
Humidity 97% 97% 80% 94%
Pressure 29.92 in1013.2 mb 29.95 in1014.2 mb 29.92 in1013.2 mb -
Hour Temp Dew Point Humidity Winds Wind Gusts Pressure Precip Precip Rate Daily Precip Total
07:30 AM 71.1°F21.7°C 70.2°F21.2°C 97% Calm Calm 1.0 mph1.6 kmh 29.92 in1013.2 mb 0.00 in0.0 mm 0.00 in/hr0.0 mm/hr 0.79 in20.1 mm
07:25 AM 71.1°F21.7°C 70.2°F21.2°C 97% Calm Calm -- 29.92 in1013.2 mb 0.00 in0.0 mm 0.00 in/hr0.0 mm/hr 0.79 in20.1 mm
07:20 AM 71.1°F21.7°C 70.2°F21.2°C 97% Calm Calm 1.0 mph1.6 kmh 29.92 in1013.2 mb 0.00 in0.0 mm 0.00 in/hr0.0 mm/hr 0.79 in20.1 mm
07:15 AM 71.1°F21.7°C 70.2°F21.2°C 97% Calm Calm 1.0 mph1.6 kmh 29.92 in1013.2 mb 0.00 in0.0 mm 0.00 in/hr0.0 mm/hr 0.79 in20.1 mm
07:10 AM 71.1°F21.7°C 70.2°F21.2°C 97% Calm Calm -- 29.92 in1013.2 mb 0.00 in0.0 mm 0.00 in/hr0.0 mm/hr 0.79 in20.1 mm
07:05 AM 71.3°F21.8°C 70.4°F21.3°C 97% Calm Calm -- 29.92 in1013.2 mb 0.00 in0.0 mm 0.00 in/hr0.0 mm/hr 0.79 in20.1 mm
07:00 AM 71.3°F21.8°C 70.4°F21.3°C 97% Calm Calm 1.0 mph1.6 kmh 29.92 in1013.2 mb 0.00 in0.0 mm 0.00 in/hr0.0 mm/hr 0.79 in20.1 mm
06:55 AM 71.3°F21.8°C 70.4°F21.3°C 97% Calm Calm 1.0 mph1.6 kmh 29.92 in1013.2 mb 0.00 in0.0 mm 0.00 in/hr0.0 mm/hr 0.79 in20.1 mm
06:50 AM 71.3°F21.8°C 70.4°F21.3°C 97% Calm Calm -- 29.92 in1013.2 mb 0.00 in0.0 mm 0.00 in/hr0.0 mm/hr 0.79 in20.1 mm
06:45 AM 71.3°F21.8°C 70.0°F21.1°C 96% Calm Calm 1.0 mph1.6 kmh 29.92 in1013.2 mb 0.00 in0.0 mm 0.00 in/hr0.0 mm/hr 0.79 in20.1 mm
06:40 AM 71.3°F21.8°C 70.0°F21.1°C 96% Calm Calm -- 29.92 in1013.2 mb 0.00 in0.0 mm 0.00 in/hr0.0 mm/hr 0.79 in20.1 mm
06:35 AM 71.5°F21.9°C 70.2°F21.2°C 96% Calm Calm 1.0 mph1.6 kmh 29.92 in1013.2 mb 0.00 in0.0 mm 0.00 in/hr0.0 mm/hr 0.79 in20.1 mm
06:30 AM 71.5°F21.9°C 70.2°F21.2°C 96% Calm Calm -- 29.92 in1013.2 mb 0.00 in0.0 mm 0.00 in/hr0.0 mm/hr 0.79 in20.1 mm
06:25 AM 71.5°F21.9°C 70.2°F21.2°C 96% Calm Calm 1.0 mph1.6 kmh 29.92 in1013.2 mb 0.00 in0.0 mm 0.00 in/hr0.0 mm/hr 0.79 in20.1 mm
06:20 AM 71.5°F21.9°C 70.2°F21.2°C 96% Calm Calm -- 29.92 in1013.2 mb 0.00 in0.0 mm 0.00 in/hr0.0 mm/hr 0.79 in20.1 mm
06:15 AM 71.5°F21.9°C 70.2°F21.2°C 96% Calm Calm 1.0 mph1.6 kmh 29.92 in1013.2 mb 0.00 in0.0 mm 0.00 in/hr0.0 mm/hr 0.79 in20.1 mm
06:10 AM 71.6°F22.0°C 70.3°F21.3°C 96% Calm Calm 1.0 mph1.6 kmh 29.92 in1013.2 mb 0.00 in0.0 mm 0.00 in/hr0.0 mm/hr 0.79 in20.1 mm
06:05 AM 71.6°F22.0°C 70.3°F21.3°C 96% Calm Calm -- 29.92 in1013.2 mb 0.00 in0.0 mm 0.00 in/hr0.0 mm/hr 0.79 in20.1 mm
06:00 AM 71.6°F22.0°C 70.3°F21.3°C 96% Calm Calm 3.0 mph4.8 kmh 29.92 in1013.2 mb 0.00 in0.0 mm 0.00 in/hr0.0 mm/hr 0.79 in20.1 mm
05:55 AM 71.6°F22.0°C 70.3°F21.3°C 96% Calm Calm 1.0 mph1.6 kmh 29.92 in1013.2 mb 0.00 in0.0 mm 0.00 in/hr0.0 mm/hr 0.79 in20.1 mm
05:50 AM 71.6°F22.0°C 70.3°F21.3°C 96% Calm Calm -- 29.92 in1013.2 mb 0.00 in0.0 mm 0.00 in/hr0.0 mm/hr 0.79 in20.1 mm
05:45 AM 71.6°F22.0°C 70.3°F21.3°C 96% Calm Calm 1.0 mph1.6 kmh 29.92 in1013.2 mb 0.00 in0.0 mm 0.00 in/hr0.0 mm/hr 0.79 in20.1 mm
05:40 AM 71.6°F22.0°C 70.3°F21.3°C 96% Calm Calm -- 29.92 in1013.2 mb 0.00 in0.0 mm 0.00 in/hr0.0 mm/hr 0.79 in20.1 mm
05:35 AM 71.8°F22.1°C 70.5°F21.4°C 96% Calm Calm -- 29.92 in1013.2 mb 0.00 in0.0 mm 0.00 in/hr0.0 mm/hr 0.79 in20.1 mm
05:30 AM 71.8°F22.1°C 70.5°F21.4°C 96% Calm Calm 1.0 mph1.6 kmh 29.92 in1013.2 mb 0.00 in0.0 mm 0.00 in/hr0.0 mm/hr 0.79 in20.1 mm
05:25 AM 71.8°F22.1°C 70.5°F21.4°C 96% Calm Calm -- 29.92 in1013.2 mb 0.00 in0.0 mm 0.00 in/hr0.0 mm/hr 0.79 in20.1 mm
05:20 AM 71.8°F22.1°C 70.5°F21.4°C 96% Calm Calm 1.0 mph1.6 kmh 29.92 in1013.2 mb 0.00 in0.0 mm 0.00 in/hr0.0 mm/hr 0.79 in20.1 mm
05:15 AM 72.0°F22.2°C 70.7°F21.5°C 96% Calm Calm 1.0 mph1.6 kmh 29.92 in1013.2 mb 0.00 in0.0 mm 0.00 in/hr0.0 mm/hr 0.79 in20.1 mm
05:10 AM 72.0°F22.2°C 70.7°F21.5°C 96% Calm Calm 1.0 mph1.6 kmh 29.92 in1013.2 mb 0.00 in0.0 mm 0.00 in/hr0.0 mm/hr 0.79 in20.1 mm
05:05 AM 72.0°F22.2°C 70.7°F21.5°C 96% Calm Calm 1.0 mph1.6 kmh 29.92 in1013.2 mb 0.00 in0.0 mm 0.00 in/hr0.0 mm/hr 0.79 in20.1 mm
05:00 AM 72.0°F22.2°C 70.7°F21.5°C 96% Calm Calm -- 29.92 in1013.2 mb 0.00 in0.0 mm 0.00 in/hr0.0 mm/hr 0.79 in20.1 mm
04:55 AM 72.1°F22.3°C 70.8°F21.6°C 96% Calm Calm 2.0 mph3.2 kmh 29.92 in1013.2 mb 0.00 in0.0 mm 0.00 in/hr0.0 mm/hr 0.79 in20.1 mm
04:50 AM 72.1°F22.3°C 70.8°F21.6°C 96% Calm Calm -- 29.92 in1013.2 mb 0.00 in0.0 mm 0.00 in/hr0.0 mm/hr 0.79 in20.1 mm
04:45 AM 72.1°F22.3°C 70.8°F21.6°C 96% Calm Calm 3.0 mph4.8 kmh 29.92 in1013.2 mb 0.00 in0.0 mm 0.00 in/hr0.0 mm/hr 0.79 in20.1 mm
04:40 AM 72.1°F22.3°C 70.8°F21.6°C 96% Calm Calm -- 29.92 in1013.2 mb 0.00 in0.0 mm 0.00 in/hr0.0 mm/hr 0.79 in20.1 mm
04:35 AM 72.3°F22.4°C 71.0°F21.7°C 96% Calm Calm 2.0 mph3.2 kmh 29.92 in1013.2 mb 0.00 in0.0 mm 0.00 in/hr0.0 mm/hr 0.79 in20.1 mm
04:30 AM 72.3°F22.4°C 71.0°F21.7°C 96% Calm Calm -- 29.92 in1013.2 mb 0.01 in0.3 mm 0.00 in/hr0.0 mm/hr 0.79 in20.1 mm
04:25 AM 72.3°F22.4°C 71.0°F21.7°C 96% Calm Calm 2.0 mph3.2 kmh 29.93 in1013.5 mb 0.01 in0.3 mm 0.00 in/hr0.0 mm/hr 0.79 in20.1 mm
04:20 AM 72.1°F22.3°C 70.8°F21.6°C 96% Calm Calm 2.0 mph3.2 kmh 29.93 in1013.5 mb 0.01 in0.3 mm 0.00 in/hr0.0 mm/hr 0.79 in20.1 mm
04:15 AM 72.1°F22.3°C 70.5°F21.4°C 95% Calm Calm 1.0 mph1.6 kmh 29.93 in1013.5 mb 0.01 in0.3 mm 0.00 in/hr0.0 mm/hr 0.79 in20.1 mm
04:10 AM 72.0°F22.2°C 70.4°F21.3°C 95% Calm Calm -- 29.92 in1013.2 mb 0.01 in0.3 mm 0.00 in/hr0.0 mm/hr 0.79 in20.1 mm
04:05 AM 72.0°F22.2°C 70.4°F21.3°C 95% Calm Calm -- 29.92 in1013.2 mb 0.01 in0.3 mm 0.00 in/hr0.0 mm/hr 0.79 in20.1 mm
04:00 AM 72.0°F22.2°C 70.4°F21.3°C 95% Calm Calm -- 29.92 in1013.2 mb 0.01 in0.3 mm 0.00 in/hr0.0 mm/hr 0.94 in23.9 mm
03:55 AM 72.1°F22.3°C 70.5°F21.4°C 95% Calm Calm -- 29.92 in1013.2 mb 0.01 in0.3 mm 0.00 in/hr0.0 mm/hr 0.94 in23.9 mm
03:50 AM 72.0°F22.2°C 70.4°F21.3°C 95% Calm Calm -- 29.92 in1013.2 mb 0.01 in0.3 mm 0.00 in/hr0.0 mm/hr 0.94 in23.9 mm
03:45 AM 72.0°F22.2°C 70.4°F21.3°C 95% Calm Calm -- 29.92 in1013.2 mb 0.01 in0.3 mm 0.00 in/hr0.0 mm/hr 0.94 in23.9 mm
03:40 AM 72.1°F22.3°C 70.5°F21.4°C 95% Calm Calm -- 29.93 in1013.5 mb 0.01 in0.3 mm 0.00 in/hr0.0 mm/hr 0.94 in23.9 mm
03:35 AM 72.1°F22.3°C 70.5°F21.4°C 95% Calm Calm -- 29.93 in1013.5 mb 0.01 in0.3 mm 0.12 in/hr3.0 mm/hr 0.94 in23.9 mm
03:30 AM 72.1°F22.3°C 70.5°F21.4°C 95% Calm Calm -- 29.93 in1013.5 mb 0.00 in0.0 mm 0.00 in/hr0.0 mm/hr 0.93 in23.6 mm
03:25 AM 72.1°F22.3°C 70.5°F21.4°C 95% Calm Calm -- 29.93 in1013.5 mb 0.00 in0.0 mm 0.00 in/hr0.0 mm/hr 0.93 in23.6 mm
03:20 AM 72.1°F22.3°C 70.5°F21.4°C 95% Calm Calm -- 29.93 in1013.5 mb 0.00 in0.0 mm 0.00 in/hr0.0 mm/hr 0.93 in23.6 mm
03:15 AM 72.3°F22.4°C 70.7°F21.5°C 95% Calm Calm -- 29.93 in1013.5 mb 0.00 in0.0 mm 0.00 in/hr0.0 mm/hr 0.93 in23.6 mm
03:10 AM 72.3°F22.4°C 70.7°F21.5°C 95% Calm Calm -- 29.92 in1013.2 mb 0.00 in0.0 mm 0.00 in/hr0.0 mm/hr 0.93 in23.6 mm
03:05 AM 72.5°F22.5°C 70.9°F21.6°C 95% Calm Calm -- 29.92 in1013.2 mb 0.00 in0.0 mm 0.00 in/hr0.0 mm/hr 0.93 in23.6 mm
03:00 AM 72.5°F22.5°C 70.9°F21.6°C 95% Calm Calm -- 29.92 in1013.2 mb 0.00 in0.0 mm 0.00 in/hr0.0 mm/hr 0.93 in23.6 mm
02:55 AM 72.5°F22.5°C 70.9°F21.6°C 95% Calm Calm 1.0 mph1.6 kmh 29.92 in1013.2 mb 0.00 in0.0 mm 0.00 in/hr0.0 mm/hr 0.93 in23.6 mm
02:50 AM 72.5°F22.5°C 70.9°F21.6°C 95% Calm Calm -- 29.92 in1013.2 mb 0.02 in0.5 mm 0.00 in/hr0.0 mm/hr 0.93 in23.6 mm
02:45 AM 72.5°F22.5°C 70.9°F21.6°C 95% Calm Calm -- 29.92 in1013.2 mb 0.06 in1.5 mm 0.00 in/hr0.0 mm/hr 0.93 in23.6 mm
02:40 AM 72.5°F22.5°C 70.6°F21.4°C 94% Calm Calm 1.0 mph1.6 kmh 29.92 in1013.2 mb 0.11 in2.8 mm 0.00 in/hr0.0 mm/hr 0.93 in23.6 mm
02:35 AM 72.5°F22.5°C 70.6°F21.4°C 94% Calm Calm -- 29.92 in1013.2 mb 0.21 in5.3 mm 0.00 in/hr0.0 mm/hr 0.93 in23.6 mm
02:30 AM 72.5°F22.5°C 70.6°F21.4°C 94% Calm Calm -- 29.92 in1013.2 mb 0.36 in9.1 mm 0.00 in/hr0.0 mm/hr 0.93 in23.6 mm
02:25 AM 72.3°F22.4°C 70.4°F21.3°C 94% Calm Calm -- 29.93 in1013.5 mb 0.47 in11.9 mm 0.00 in/hr0.0 mm/hr 0.93 in23.6 mm
02:20 AM 72.5°F22.5°C 70.6°F21.4°C 94% Calm Calm -- 29.93 in1013.5 mb 0.59 in15.0 mm 0.00 in/hr0.0 mm/hr 0.93 in23.6 mm
02:15 AM 72.5°F22.5°C 70.6°F21.4°C 94% Calm Calm -- 29.93 in1013.5 mb 0.69 in17.5 mm 0.00 in/hr0.0 mm/hr 0.93 in23.6 mm
02:10 AM 72.5°F22.5°C 70.6°F21.4°C 94% Calm Calm -- 29.94 in1013.9 mb 0.73 in18.5 mm 0.00 in/hr0.0 mm/hr 0.93 in23.6 mm
02:05 AM 72.5°F22.5°C 70.3°F21.3°C 93% Calm Calm -- 29.94 in1013.9 mb 0.75 in19.1 mm 0.00 in/hr0.0 mm/hr 0.93 in23.6 mm
02:00 AM 72.7°F22.6°C 70.5°F21.4°C 93% Calm Calm -- 29.94 in1013.9 mb 0.76 in19.3 mm 0.00 in/hr0.0 mm/hr 0.93 in23.6 mm
01:55 AM 72.8°F22.7°C 70.6°F21.4°C 93% Calm Calm -- 29.95 in1014.2 mb 0.78 in19.8 mm 0.12 in/hr3.0 mm/hr 0.93 in23.6 mm
01:50 AM 72.8°F22.7°C 70.6°F21.4°C 93% Calm Calm -- 29.95 in1014.2 mb 0.77 in19.6 mm 0.36 in/hr9.1 mm/hr 0.91 in23.1 mm
01:45 AM 73.2°F22.9°C 71.0°F21.7°C 93% Calm Calm -- 29.95 in1014.2 mb 0.74 in18.8 mm 0.48 in/hr12.2 mm/hr 0.87 in22.1 mm
01:40 AM 73.5°F23.1°C 71.0°F21.7°C 92% Calm Calm 1.0 mph1.6 kmh 29.95 in1014.2 mb 0.70 in17.8 mm 0.96 in/hr24.4 mm/hr 0.82 in20.8 mm
01:35 AM 74.2°F23.4°C 71.7°F22.1°C 92% Calm Calm 2.0 mph3.2 kmh 29.95 in1014.2 mb 0.62 in15.7 mm 1.56 in/hr39.6 mm/hr 0.72 in18.3 mm
01:30 AM 74.9°F23.8°C 72.4°F22.4°C 92% Calm Calm 6.0 mph9.7 kmh 29.95 in1014.2 mb 0.49 in12.4 mm 1.20 in/hr30.5 mm/hr 0.57 in14.5 mm
01:25 AM 75.4°F24.1°C 73.2°F22.9°C 93% Calm Calm 2.0 mph3.2 kmh 29.95 in1014.2 mb 0.39 in9.9 mm 1.32 in/hr33.5 mm/hr 0.46 in11.7 mm
01:20 AM 75.6°F24.2°C 73.1°F22.8°C 92% Calm Calm 2.0 mph3.2 kmh 29.95 in1014.2 mb 0.28 in7.1 mm 0.96 in/hr24.4 mm/hr 0.34 in8.6 mm
01:15 AM 75.6°F24.2°C 73.1°F22.8°C 92% Calm Calm 1.0 mph1.6 kmh 29.95 in1014.2 mb 0.20 in5.1 mm 0.36 in/hr9.1 mm/hr 0.24 in6.1 mm
01:10 AM 75.8°F24.3°C 72.9°F22.7°C 91% Calm Calm 1.0 mph1.6 kmh 29.94 in1013.9 mb 0.17 in4.3 mm 0.00 in/hr0.0 mm/hr 0.20 in5.1 mm
01:05 AM 75.8°F24.3°C 72.9°F22.7°C 91% Calm Calm -- 29.94 in1013.9 mb 0.17 in4.3 mm 0.00 in/hr0.0 mm/hr 0.18 in4.6 mm
01:00 AM 76.0°F24.4°C 72.8°F22.7°C 90% Calm Calm -- 29.94 in1013.9 mb 0.17 in4.3 mm 0.02 in/hr0.5 mm/hr 0.17 in4.3 mm
12:55 AM 76.0°F24.4°C 72.8°F22.7°C 90% Calm Calm -- 29.94 in1013.9 mb 0.15 in3.8 mm 0.12 in/hr3.0 mm/hr 0.15 in3.8 mm
12:50 AM 76.1°F24.5°C 72.9°F22.7°C 90% Calm Calm -- 29.94 in1013.9 mb 0.14 in3.6 mm 0.12 in/hr3.0 mm/hr 0.14 in3.6 mm
12:45 AM 76.3°F24.6°C 72.8°F22.7°C 89% Calm Calm 1.0 mph1.6 kmh 29.94 in1013.9 mb 0.13 in3.3 mm 0.12 in/hr3.0 mm/hr 0.13 in3.3 mm
12:40 AM 76.3°F24.6°C 72.8°F22.7°C 89% Calm Calm -- 29.95 in1014.2 mb 0.12 in3.0 mm 0.24 in/hr6.1 mm/hr 0.12 in3.0 mm
12:35 AM 76.7°F24.8°C 72.8°F22.7°C 88% Calm Calm 1.0 mph1.6 kmh 29.95 in1014.2 mb 0.10 in2.5 mm 0.24 in/hr6.1 mm/hr 0.10 in2.5 mm
12:30 AM 76.8°F24.9°C 72.6°F22.6°C 87% Calm Calm 1.0 mph1.6 kmh 29.95 in1014.2 mb 0.08 in2.0 mm 0.12 in/hr3.0 mm/hr 0.08 in2.0 mm
12:25 AM 77.0°F25.0°C 72.4°F22.4°C 86% Calm Calm 3.0 mph4.8 kmh 29.95 in1014.2 mb 0.07 in1.8 mm 0.12 in/hr3.0 mm/hr 0.07 in1.8 mm
12:20 AM 77.4°F25.2°C 72.5°F22.5°C 85% Calm Calm 2.0 mph3.2 kmh 29.95 in1014.2 mb 0.06 in1.5 mm 0.24 in/hr6.1 mm/hr 0.06 in1.5 mm
12:15 AM 77.7°F25.4°C 72.4°F22.4°C 84% Calm Calm 1.0 mph1.6 kmh 29.95 in1014.2 mb 0.04 in1.0 mm 0.12 in/hr3.0 mm/hr 0.04 in1.0 mm
12:10 AM 77.9°F25.5°C 72.3°F22.4°C 83% Calm Calm 2.0 mph3.2 kmh 29.94 in1013.9 mb 0.03 in0.8 mm 0.24 in/hr6.1 mm/hr 0.03 in0.8 mm
12:05 AM 78.3°F25.7°C 71.9°F22.2°C 81% 2.0 mph SW3.2 kmh SW 4.0 mph6.4 kmh 29.94 in1013.9 mb 0.01 in0.3 mm 0.12 in/hr3.0 mm/hr 0.01 in0.3 mm
12:00 AM 78.6°F25.9°C 71.8°F22.1°C 80% Calm Calm 4.0 mph6.4 kmh 29.94 in1013.9 mb 0.00 in0.0 mm 0.00 in/hr0.0 mm/hr 0.00 in0.0 mm